Available data for KLBE from the past 2 hours
LATROBE/WESTMORL, PA
Metar
KLBE 160555Z AUTO 00000KT 10SM OVC075 18/18 A3011 RMK AO2

05:55 UTC

Wind: 0° 0kt

Visibility: 10 SM

Sky: OVC 7500 ft

Temp: 18 deg C / 64.4 deg F

Dewpoint: 18 deg C / 64.4 deg F

Pressure: 30.11 inHg

TAF
KLBE 160520Z 1606/1706 26003KT P6SM BKN100 FM161600 25005KT P6SM BKN050 FM170200 04003KT P6SM BKN025